createdAt,value
2016-12-29T00:00:47.322Z,60.94
2016-12-29T00:01:43.935Z,60.91
2016-12-29T00:02:48.173Z,60.92
2016-12-29T00:04:01.834Z,60.94
2016-12-29T00:04:52.226Z,60.95
2016-12-29T00:05:39.584Z,60.94
2016-12-29T00:06:54.013Z,60.90
2016-12-29T00:07:49.572Z,60.92
2016-12-29T00:08:47.974Z,60.91
2016-12-29T00:09:48.863Z,60.91
2016-12-29T00:10:48.671Z,60.91
2016-12-29T00:11:42.428Z,60.92
2016-12-29T00:12:48.733Z,60.90
2016-12-29T00:13:53.083Z,60.93
2016-12-29T00:14:39.834Z,60.94
2016-12-29T00:15:43.404Z,60.92
2016-12-29T00:16:50.565Z,60.92
2016-12-29T00:17:47.238Z,60.94
2016-12-29T00:18:49.476Z,60.95
2016-12-29T00:19:44.774Z,60.93
2016-12-29T00:20:46.436Z,60.93
2016-12-29T00:21:50.018Z,60.93
2016-12-29T00:22:42.563Z,60.92
2016-12-29T00:23:39.880Z,60.94
2016-12-29T00:24:50.571Z,60.96
2016-12-29T00:25:44.561Z,60.98
2016-12-29T00:26:42.672Z,60.93
2016-12-29T00:27:44.368Z,60.93
2016-12-29T00:28:53.687Z,60.93
2016-12-29T00:29:41.897Z,60.92
2016-12-29T00:30:39.639Z,60.92
2016-12-29T00:31:37.739Z,60.92
2016-12-29T00:32:45.218Z,60.94
2016-12-29T00:33:37.893Z,60.92
2016-12-29T00:34:40.461Z,60.92
2016-12-29T00:35:49.047Z,60.93
2016-12-29T00:36:49.841Z,60.95
2016-12-29T00:37:44.695Z,60.97
2016-12-29T00:38:42.876Z,60.94
2016-12-29T00:39:56.810Z,60.95
2016-12-29T00:40:41.631Z,60.96
2016-12-29T00:41:44.276Z,60.99
2016-12-29T00:42:49.356Z,60.95
2016-12-29T00:43:41.252Z,60.96
2016-12-29T00:44:40.686Z,60.99
2016-12-29T00:45:44.656Z,61.00
2016-12-29T00:46:51.652Z,60.98
2016-12-29T00:47:50.564Z,60.98
2016-12-29T00:48:47.034Z,61.01
2016-12-29T00:49:52.866Z,61.00
2016-12-29T00:50:43.802Z,61.01
2016-12-29T00:51:52.791Z,61.02
2016-12-29T00:52:50.453Z,61.02
2016-12-29T00:53:49.310Z,61.00
2016-12-29T00:54:50.071Z,61.04
2016-12-29T00:55:50.565Z,61.02
2016-12-29T00:56:39.331Z,61.02
2016-12-29T00:57:44.472Z,61.01
2016-12-29T00:58:50.874Z,60.98
2016-12-29T00:59:45.981Z,60.87
2016-12-29T01:00:48.320Z,60.03
2016-12-29T01:01:42.862Z,59.82
2016-12-29T01:02:53.413Z,59.71
2016-12-29T01:03:49.177Z,59.64
2016-12-29T01:04:55.533Z,59.68
2016-12-29T01:05:50.993Z,60.58
2016-12-29T01:06:48.499Z,60.79
2016-12-29T01:07:50.614Z,60.89
2016-12-29T01:08:52.278Z,60.95
2016-12-29T01:09:41.308Z,61.05
2016-12-29T01:10:48.307Z,61.03
2016-12-29T01:11:49.484Z,61.04
2016-12-29T01:12:55.548Z,61.05
2016-12-29T01:13:49.926Z,61.10
2016-12-29T01:15:00.007Z,61.06
2016-12-29T01:15:44.320Z,61.08
2016-12-29T01:16:46.082Z,61.05
2016-12-29T01:17:44.839Z,61.04
2016-12-29T01:19:03.368Z,61.04
2016-12-29T01:20:07.010Z,61.08
2016-12-29T01:20:54.007Z,61.03
2016-12-29T01:21:49.008Z,61.04
2016-12-29T01:22:47.635Z,61.00
2016-12-29T01:23:50.006Z,61.03
2016-12-29T01:24:59.983Z,61.03
2016-12-29T01:25:48.233Z,61.03
2016-12-29T01:26:46.760Z,61.02
2016-12-29T01:27:49.689Z,61.02
2016-12-29T01:28:49.012Z,61.03
2016-12-29T01:29:54.027Z,61.04
2016-12-29T01:30:53.713Z,61.03
2016-12-29T01:31:46.021Z,60.89
2016-12-29T01:32:43.076Z,60.35
2016-12-29T01:33:42.653Z,60.84
2016-12-29T01:34:46.188Z,60.98
2016-12-29T01:35:56.222Z,61.02
2016-12-29T01:36:43.778Z,61.02
2016-12-29T01:37:50.029Z,61.06
2016-12-29T01:38:49.031Z,61.11
2016-12-29T01:39:47.042Z,61.10
2016-12-29T01:40:49.434Z,61.13
2016-12-29T01:41:49.760Z,61.14
2016-12-29T01:42:46.359Z,61.14
2016-12-29T01:43:38.462Z,61.14
2016-12-29T01:44:59.727Z,61.17
2016-12-29T01:45:52.050Z,61.26
2016-12-29T01:46:46.183Z,61.21
2016-12-29T01:47:50.692Z,61.22
2016-12-29T01:48:50.459Z,61.26
2016-12-29T01:49:42.242Z,61.27
2016-12-29T01:50:38.057Z,61.28
2016-12-29T01:51:50.185Z,61.28
2016-12-29T01:52:54.055Z,61.32
2016-12-29T01:53:39.450Z,61.32
2016-12-29T01:54:48.450Z,61.32
2016-12-29T01:55:48.553Z,61.35
2016-12-29T01:56:39.322Z,61.42
2016-12-29T01:57:44.012Z,61.46
2016-12-29T01:58:43.300Z,61.52
2016-12-29T01:59:39.724Z,61.54
2016-12-29T02:00:48.529Z,61.54
2016-12-29T02:01:49.623Z,61.56
2016-12-29T02:02:50.910Z,61.51
2016-12-29T02:03:42.556Z,61.52
2016-12-29T02:04:43.060Z,61.47
2016-12-29T02:05:47.570Z,61.46
2016-12-29T02:06:40.101Z,61.40
2016-12-29T02:07:53.589Z,61.32
2016-12-29T02:08:46.550Z,61.30
2016-12-29T02:09:42.119Z,61.24
2016-12-29T02:10:56.622Z,61.15
2016-12-29T02:11:50.351Z,61.09
2016-12-29T02:12:42.550Z,61.07
2016-12-29T02:13:50.467Z,60.89
2016-12-29T02:14:48.403Z,60.86
2016-12-29T02:15:57.429Z,60.81
2016-12-29T02:16:38.850Z,60.79
2016-12-29T02:17:48.093Z,60.70
2016-12-29T02:18:45.775Z,60.62
2016-12-29T02:19:40.163Z,60.60
2016-12-29T02:20:49.732Z,60.55
2016-12-29T02:21:50.866Z,60.46
2016-12-29T02:22:41.440Z,60.38
2016-12-29T02:23:44.732Z,60.28
2016-12-29T02:24:49.632Z,60.19
2016-12-29T02:25:41.569Z,60.13
2016-12-29T02:26:51.258Z,60.04
2016-12-29T02:27:50.171Z,60.03
2016-12-29T02:28:51.631Z,59.98
2016-12-29T02:29:46.110Z,59.94
2016-12-29T02:30:43.791Z,59.91
2016-12-29T02:31:44.692Z,59.92
2016-12-29T02:32:45.507Z,59.90
2016-12-29T02:33:55.388Z,59.89
2016-12-29T02:34:49.721Z,59.87
2016-12-29T02:35:49.117Z,59.88
2016-12-29T02:36:46.532Z,59.91
2016-12-29T02:37:53.966Z,59.89
2016-12-29T02:38:51.346Z,59.91
2016-12-29T02:39:55.561Z,59.91
2016-12-29T02:40:49.902Z,59.93
2016-12-29T02:41:49.226Z,59.93
2016-12-29T02:42:50.179Z,59.94
2016-12-29T02:43:49.781Z,59.95
2016-12-29T02:44:41.285Z,59.97
2016-12-29T02:45:49.945Z,59.99
2016-12-29T02:47:27.650Z,60.02
2016-12-29T02:47:55.731Z,60.05
2016-12-29T02:48:57.755Z,60.08
2016-12-29T02:50:01.242Z,60.07
2016-12-29T02:50:59.735Z,60.08
2016-12-29T02:51:49.448Z,60.10
2016-12-29T02:52:46.634Z,60.12
2016-12-29T02:53:43.801Z,60.12
2016-12-29T02:54:45.010Z,60.14
2016-12-29T02:55:48.631Z,60.15
2016-12-29T02:56:49.123Z,60.16
2016-12-29T02:57:38.640Z,60.19
2016-12-29T02:58:52.041Z,60.19
2016-12-29T02:59:45.042Z,60.21
2016-12-29T03:00:53.031Z,60.22
2016-12-29T03:01:49.847Z,60.23
2016-12-29T03:02:49.892Z,60.24
2016-12-29T03:03:39.900Z,60.26
2016-12-29T03:04:41.364Z,60.26
2016-12-29T03:05:46.567Z,60.16
2016-12-29T03:06:49.931Z,59.35
2016-12-29T03:07:43.373Z,59.12
2016-12-29T03:08:46.723Z,59.05
2016-12-29T03:09:57.743Z,59.00
2016-12-29T03:10:49.146Z,58.94
2016-12-29T03:11:40.524Z,58.97
2016-12-29T03:12:37.950Z,58.93
2016-12-29T03:13:49.988Z,59.86
2016-12-29T03:14:50.489Z,60.08
2016-12-29T03:15:52.716Z,60.22
2016-12-29T03:16:44.670Z,60.24
2016-12-29T03:17:49.537Z,60.30
2016-12-29T03:18:46.757Z,60.33
2016-12-29T03:19:44.722Z,60.34
2016-12-29T03:20:53.349Z,60.35
2016-12-29T03:21:48.300Z,60.38
2016-12-29T03:22:45.261Z,60.37
2016-12-29T03:23:45.485Z,60.39
2016-12-29T03:24:42.782Z,60.39
2016-12-29T03:25:51.099Z,60.42
2016-12-29T03:26:50.229Z,60.43
2016-12-29T03:27:37.861Z,60.45
2016-12-29T03:28:47.721Z,60.47
2016-12-29T03:29:53.633Z,60.49
2016-12-29T03:31:05.069Z,60.52
2016-12-29T03:31:53.460Z,60.54
2016-12-29T03:32:57.388Z,60.56
2016-12-29T03:33:38.913Z,60.60
2016-12-29T03:34:53.172Z,60.61
2016-12-29T03:35:57.571Z,60.62
2016-12-29T03:37:03.991Z,60.62
2016-12-29T03:37:43.711Z,60.64
2016-12-29T03:38:59.949Z,60.63
2016-12-29T03:39:38.004Z,60.65
2016-12-29T03:40:52.227Z,60.52
2016-12-29T03:41:44.415Z,59.72
2016-12-29T03:42:43.421Z,59.43
2016-12-29T03:43:55.368Z,59.51
2016-12-29T03:44:49.450Z,60.28
2016-12-29T03:45:34.750Z,60.46
2016-12-29T03:46:50.284Z,60.54
2016-12-29T03:47:47.818Z,60.60
2016-12-29T03:48:40.482Z,60.63
2016-12-29T03:49:46.066Z,60.63
2016-12-29T03:50:44.375Z,60.65
2016-12-29T03:52:00.501Z,60.67
2016-12-29T03:52:48.355Z,60.69
2016-12-29T03:53:46.358Z,60.72
2016-12-29T03:54:45.873Z,60.70
2016-12-29T03:55:48.452Z,60.72
2016-12-29T03:56:51.443Z,60.76
2016-12-29T03:57:39.553Z,60.74
2016-12-29T03:58:42.183Z,60.76
2016-12-29T03:59:39.125Z,60.78
2016-12-29T04:00:49.501Z,60.78
2016-12-29T04:01:48.468Z,60.78
2016-12-29T04:02:49.891Z,60.82
2016-12-29T04:03:48.637Z,60.81
2016-12-29T04:04:49.914Z,60.82
2016-12-29T04:05:49.153Z,60.87
2016-12-29T04:06:43.827Z,60.86
2016-12-29T04:07:36.721Z,60.89
2016-12-29T04:08:42.720Z,60.86
2016-12-29T04:09:47.906Z,60.89
2016-12-29T04:10:48.419Z,60.92
2016-12-29T04:11:38.773Z,60.91
2016-12-29T04:12:54.041Z,60.93
2016-12-29T04:13:38.560Z,60.94
2016-12-29T04:14:50.460Z,60.95
2016-12-29T04:15:38.812Z,60.96
2016-12-29T04:16:49.365Z,60.97
2016-12-29T04:17:43.302Z,60.97
2016-12-29T04:18:42.752Z,60.97
2016-12-29T04:19:49.493Z,61.00
2016-12-29T04:21:00.708Z,61.01
2016-12-29T04:21:44.748Z,61.02
2016-12-29T04:22:47.606Z,61.01
2016-12-29T04:23:49.134Z,61.05
2016-12-29T04:24:46.600Z,61.04
2016-12-29T04:25:56.715Z,61.05
2016-12-29T04:26:39.950Z,61.06
2016-12-29T04:27:58.980Z,61.07
2016-12-29T04:28:58.478Z,61.07
2016-12-29T04:29:43.829Z,61.10
2016-12-29T04:30:46.761Z,61.12
2016-12-29T04:31:49.958Z,61.14
2016-12-29T04:32:48.914Z,61.16
2016-12-29T04:33:39.494Z,61.17
2016-12-29T04:34:44.604Z,61.16
2016-12-29T04:35:50.245Z,61.17
2016-12-29T04:36:44.011Z,61.19
2016-12-29T04:37:39.492Z,61.18
2016-12-29T04:39:26.971Z,61.17
2016-12-29T04:41:32.362Z,61.20
2016-12-29T04:42:45.986Z,61.17
2016-12-29T04:43:43.000Z,61.18
2016-12-29T04:44:47.832Z,61.15
2016-12-29T04:45:54.948Z,61.16
2016-12-29T04:48:02.985Z,61.20
2016-12-29T04:48:44.346Z,61.17
2016-12-29T04:49:02.380Z,61.14
2016-12-29T04:50:38.907Z,61.18
2016-12-29T04:50:57.251Z,61.17
2016-12-29T04:53:33.919Z,61.19
2016-12-29T04:53:39.063Z,61.15
2016-12-29T04:57:05.868Z,61.15
2016-12-29T04:57:40.566Z,61.13
2016-12-29T04:58:53.522Z,61.17
2016-12-29T05:00:32.043Z,61.14
2016-12-29T05:00:46.382Z,61.17
2016-12-29T05:02:11.821Z,61.16
2016-12-29T05:02:44.321Z,61.15
2016-12-29T05:03:35.712Z,61.16
2016-12-29T05:04:46.373Z,61.15
2016-12-29T05:06:40.816Z,61.14
2016-12-29T05:07:32.624Z,61.11
2016-12-29T05:08:56.055Z,61.11
2016-12-29T05:09:54.505Z,61.13
2016-12-29T05:11:30.010Z,61.14
2016-12-29T05:11:52.879Z,61.14
2016-12-29T05:12:51.672Z,61.14
2016-12-29T05:15:01.871Z,61.14
2016-12-29T05:15:53.377Z,61.18
2016-12-29T05:17:03.600Z,61.19
2016-12-29T05:17:47.510Z,61.17
2016-12-29T05:18:43.979Z,60.16
2016-12-29T05:19:43.874Z,59.97
2016-12-29T05:20:43.200Z,59.84
2016-12-29T05:21:44.385Z,59.79
2016-12-29T05:22:46.747Z,59.74
2016-12-29T05:23:39.475Z,59.73
2016-12-29T05:24:37.496Z,59.74
2016-12-29T05:25:41.680Z,59.68
2016-12-29T05:26:45.469Z,59.68
2016-12-29T05:27:45.808Z,59.67
2016-12-29T05:28:43.204Z,59.68
2016-12-29T05:29:49.400Z,59.67
2016-12-29T05:30:51.025Z,59.66
2016-12-29T05:31:45.393Z,59.66
2016-12-29T05:32:47.447Z,60.01
2016-12-29T05:33:44.769Z,60.64
2016-12-29T05:34:50.739Z,60.85
2016-12-29T05:35:50.036Z,60.96
2016-12-29T05:36:41.354Z,61.05
2016-12-29T05:37:38.189Z,61.05
2016-12-29T05:38:53.763Z,61.13
2016-12-29T05:39:56.190Z,61.11
2016-12-29T05:40:38.970Z,61.14
2016-12-29T05:41:46.140Z,61.16
2016-12-29T05:42:51.475Z,61.18
2016-12-29T05:43:51.061Z,61.21
2016-12-29T05:44:53.520Z,61.21
2016-12-29T05:45:55.512Z,61.24
2016-12-29T05:47:33.569Z,61.25
2016-12-29T05:47:55.811Z,61.27
2016-12-29T05:49:00.963Z,61.27
2016-12-29T05:49:57.730Z,61.28
2016-12-29T05:50:50.545Z,61.31
2016-12-29T05:51:55.682Z,61.29
2016-12-29T05:52:51.505Z,61.30
2016-12-29T05:53:53.555Z,61.31
2016-12-29T05:54:53.108Z,61.30
2016-12-29T05:55:46.648Z,61.20
2016-12-29T05:56:45.550Z,60.32
2016-12-29T05:57:48.891Z,60.25
2016-12-29T05:58:50.570Z,60.33
2016-12-29T05:59:49.524Z,60.99
2016-12-29T06:00:43.770Z,61.16
2016-12-29T06:01:49.378Z,61.26
2016-12-29T06:02:50.209Z,61.29
2016-12-29T06:03:50.704Z,61.33
2016-12-29T06:04:43.139Z,61.33
2016-12-29T06:05:43.950Z,61.35
2016-12-29T06:06:47.431Z,61.38
2016-12-29T06:07:45.860Z,61.37
2016-12-29T06:08:29.690Z,61.40
2016-12-29T06:09:45.859Z,61.39
2016-12-29T06:10:50.438Z,61.37
2016-12-29T06:11:49.504Z,61.36
2016-12-29T06:12:43.354Z,61.38
2016-12-29T06:13:53.172Z,61.39
2016-12-29T06:14:36.820Z,61.38
2016-12-29T06:15:42.619Z,61.40
2016-12-29T06:16:50.372Z,61.42
2016-12-29T06:17:39.018Z,61.44
2016-12-29T06:18:50.445Z,61.45
2016-12-29T06:19:50.396Z,61.45
2016-12-29T06:20:44.815Z,61.46
2016-12-29T06:21:55.776Z,61.46
2016-12-29T06:22:48.273Z,61.48
2016-12-29T06:23:43.399Z,61.45
2016-12-29T06:24:54.034Z,61.48
2016-12-29T06:25:55.557Z,61.45
2016-12-29T06:26:50.908Z,61.44
2016-12-29T06:27:35.185Z,61.45
2016-12-29T06:28:22.801Z,61.43
2016-12-29T06:29:45.277Z,61.44
2016-12-29T06:30:40.619Z,61.45
2016-12-29T06:31:20.717Z,61.45
2016-12-29T06:32:44.628Z,61.41
2016-12-29T06:33:52.045Z,61.44
2016-12-29T06:34:42.751Z,61.42
2016-12-29T06:35:48.707Z,61.41
2016-12-29T06:36:50.690Z,61.42
2016-12-29T06:37:47.823Z,61.39
2016-12-29T06:38:52.412Z,61.41
2016-12-29T06:39:41.628Z,61.44
2016-12-29T06:40:50.239Z,61.44
2016-12-29T06:41:50.456Z,61.44
2016-12-29T06:42:41.248Z,61.48
2016-12-29T06:43:39.071Z,61.46
2016-12-29T06:44:50.300Z,61.47
2016-12-29T06:45:42.102Z,61.46
2016-12-29T06:46:41.630Z,61.52
2016-12-29T06:47:33.227Z,61.50
2016-12-29T06:48:54.353Z,61.54
2016-12-29T06:49:49.629Z,61.54
2016-12-29T06:50:44.904Z,61.54
2016-12-29T06:52:04.517Z,61.55
2016-12-29T06:52:42.113Z,61.53
2016-12-29T06:53:44.266Z,61.51
2016-12-29T06:54:44.307Z,61.52
2016-12-29T06:55:44.348Z,61.51
2016-12-29T06:56:49.116Z,61.52
2016-12-29T06:57:43.344Z,61.52
2016-12-29T06:58:42.893Z,61.50
2016-12-29T07:00:09.920Z,61.52
2016-12-29T07:00:59.808Z,61.50
2016-12-29T07:01:38.770Z,61.51
2016-12-29T07:02:36.750Z,61.48
2016-12-29T07:03:46.754Z,61.52
2016-12-29T07:05:49.667Z,61.61
2016-12-29T07:06:43.554Z,61.59
2016-12-29T07:07:39.086Z,61.58
2016-12-29T07:08:44.113Z,61.59
2016-12-29T07:09:50.116Z,61.60
2016-12-29T07:10:47.115Z,61.62
2016-12-29T07:12:03.612Z,61.61
2016-12-29T07:12:47.470Z,61.63
2016-12-29T07:13:59.703Z,61.67
2016-12-29T07:14:52.632Z,61.66
2016-12-29T07:15:43.812Z,61.69
2016-12-29T07:17:00.132Z,61.69
2016-12-29T07:17:39.652Z,61.69
2016-12-29T07:18:49.665Z,61.70
2016-12-29T07:19:55.516Z,61.71
2016-12-29T07:20:55.113Z,61.70
2016-12-29T07:21:46.571Z,61.71
2016-12-29T07:22:58.646Z,61.69
2016-12-29T07:24:51.132Z,61.71
2016-12-29T07:25:57.310Z,61.68
2016-12-29T07:26:59.914Z,61.69
2016-12-29T07:27:49.411Z,61.68
2016-12-29T07:28:39.441Z,61.66
2016-12-29T07:30:01.468Z,61.67
2016-12-29T07:31:20.003Z,61.66
2016-12-29T07:31:50.571Z,61.67
2016-12-29T07:33:02.921Z,61.66
2016-12-29T07:33:51.633Z,61.64
2016-12-29T07:34:24.107Z,61.70
2016-12-29T07:35:38.282Z,61.65
2016-12-29T07:36:57.250Z,61.64
2016-12-29T07:37:50.420Z,61.64
2016-12-29T07:38:54.662Z,61.62
2016-12-29T07:39:49.863Z,61.60
2016-12-29T07:40:45.769Z,61.61
2016-12-29T07:42:04.461Z,61.63
2016-12-29T07:43:00.196Z,61.62
2016-12-29T07:43:44.050Z,61.59
2016-12-29T07:44:50.437Z,61.62
2016-12-29T07:45:39.481Z,61.60
2016-12-29T07:46:39.575Z,61.57
2016-12-29T07:47:45.936Z,61.60
2016-12-29T07:48:50.769Z,61.55
2016-12-29T07:49:59.733Z,61.58
2016-12-29T07:51:01.735Z,61.57
2016-12-29T07:52:16.900Z,61.56
2016-12-29T07:52:44.559Z,61.60
2016-12-29T07:53:49.856Z,61.59
2016-12-29T07:55:26.555Z,61.56
2016-12-29T07:55:43.280Z,61.58
2016-12-29T07:56:49.652Z,61.57
2016-12-29T07:57:40.480Z,61.56
2016-12-29T07:58:49.742Z,61.55
2016-12-29T07:59:39.706Z,61.56
2016-12-29T08:00:32.343Z,61.52
2016-12-29T08:01:35.709Z,61.50
2016-12-29T08:03:37.980Z,61.51
2016-12-29T08:05:01.549Z,61.52
2016-12-29T08:05:51.780Z,61.50
2016-12-29T08:06:52.584Z,61.48
2016-12-29T08:07:32.885Z,61.49
2016-12-29T08:09:05.020Z,61.50
2016-12-29T08:09:51.821Z,61.46
2016-12-29T08:10:48.755Z,61.46
2016-12-29T08:11:40.827Z,61.45
2016-12-29T08:12:50.753Z,61.44
2016-12-29T08:14:06.828Z,61.45
2016-12-29T08:14:44.224Z,61.45
2016-12-29T08:15:38.133Z,61.46
2016-12-29T08:17:47.051Z,61.43
2016-12-29T08:18:07.943Z,61.43
2016-12-29T08:18:24.162Z,61.45
2016-12-29T08:19:57.403Z,61.42
2016-12-29T08:20:45.527Z,61.41
2016-12-29T08:21:34.366Z,61.41
2016-12-29T08:22:45.287Z,61.42
2016-12-29T08:23:51.409Z,61.43
2016-12-29T08:24:40.558Z,61.43
2016-12-29T08:25:51.843Z,61.41
2016-12-29T08:27:30.632Z,61.41
2016-12-29T08:27:47.580Z,61.41
2016-12-29T08:28:54.863Z,61.44
2016-12-29T08:29:35.257Z,61.42
2016-12-29T08:30:48.765Z,61.45
2016-12-29T08:31:59.789Z,61.51
2016-12-29T08:32:55.934Z,61.52
2016-12-29T08:33:45.755Z,61.54
2016-12-29T08:34:49.583Z,61.56
2016-12-29T08:35:54.432Z,61.55
2016-12-29T08:36:52.149Z,61.53
2016-12-29T08:37:52.913Z,61.52
2016-12-29T08:39:02.933Z,61.52
2016-12-29T08:40:43.281Z,61.52
2016-12-29T08:40:59.996Z,61.50
2016-12-29T08:41:48.692Z,61.50
2016-12-29T08:42:41.768Z,61.45
2016-12-29T08:43:37.760Z,61.45
2016-12-29T08:45:27.756Z,61.45
2016-12-29T08:45:32.770Z,61.41
2016-12-29T08:46:41.428Z,61.41
2016-12-29T08:48:46.126Z,61.38
2016-12-29T08:50:01.282Z,61.40
2016-12-29T08:50:28.538Z,61.38
2016-12-29T08:51:46.674Z,61.39
2016-12-29T08:52:51.135Z,61.80
2016-12-29T08:53:46.994Z,61.46
2016-12-29T08:54:47.003Z,45.28
2016-12-29T08:55:59.870Z,43.32
2016-12-29T08:56:53.851Z,42.96
2016-12-29T08:57:46.625Z,43.32
2016-12-29T08:58:50.757Z,43.48
2016-12-29T09:00:21.549Z,43.99
2016-12-29T09:01:06.598Z,44.45
2016-12-29T09:01:48.028Z,44.78
2016-12-29T09:02:50.302Z,45.29
2016-12-29T09:03:51.533Z,45.39
2016-12-29T09:05:56.133Z,45.19
2016-12-29T09:07:00.754Z,46.83
2016-12-29T09:08:00.864Z,46.49
2016-12-29T09:08:47.037Z,46.27
2016-12-29T09:09:49.788Z,46.78
2016-12-29T09:10:43.486Z,48.02
2016-12-29T09:11:39.545Z,49.70
2016-12-29T09:12:34.607Z,50.06
2016-12-29T09:13:38.163Z,49.12
2016-12-29T09:14:38.878Z,49.91
2016-12-29T09:15:42.678Z,49.32
2016-12-29T09:16:41.759Z,49.36
2016-12-29T09:17:37.065Z,48.92
2016-12-29T09:18:43.846Z,49.22
2016-12-29T09:19:39.164Z,49.31
2016-12-29T09:20:38.365Z,49.59
2016-12-29T09:21:42.513Z,49.53
2016-12-29T09:22:43.441Z,49.77
2016-12-29T09:23:46.030Z,50.03
2016-12-29T09:24:32.891Z,50.08
2016-12-29T09:25:43.161Z,50.07
2016-12-29T09:26:43.160Z,50.16
2016-12-29T09:27:32.673Z,50.25
2016-12-29T09:28:50.554Z,50.31
2016-12-29T09:29:39.233Z,50.39
2016-12-29T09:30:33.827Z,50.25
2016-12-29T09:31:35.495Z,50.41
2016-12-29T09:32:49.120Z,50.47
2016-12-29T09:33:36.234Z,50.64
2016-12-29T09:34:37.860Z,50.64
2016-12-29T09:35:43.806Z,50.66
2016-12-29T09:36:49.016Z,50.81
2016-12-29T09:37:46.334Z,50.25
2016-12-29T09:38:49.953Z,50.07
2016-12-29T09:39:57.204Z,50.09
2016-12-29T09:40:43.299Z,50.12
2016-12-29T09:41:56.374Z,50.33
2016-12-29T09:42:51.824Z,50.33
2016-12-29T09:43:46.646Z,50.51
2016-12-29T09:44:48.673Z,50.61
2016-12-29T09:45:56.873Z,51.50
2016-12-29T09:46:54.836Z,51.64
2016-12-29T09:47:49.977Z,51.76
2016-12-29T09:48:50.820Z,51.88
2016-12-29T09:49:55.664Z,52.03
2016-12-29T09:50:43.693Z,52.11
2016-12-29T09:51:43.772Z,52.14
2016-12-29T09:52:47.716Z,52.18
2016-12-29T09:53:50.396Z,52.21
2016-12-29T09:54:51.539Z,52.29
2016-12-29T09:55:41.603Z,52.39
2016-12-29T09:57:04.696Z,52.41
2016-12-29T09:57:42.547Z,52.43
2016-12-29T09:58:43.155Z,52.53
2016-12-29T09:59:49.618Z,52.59
2016-12-29T10:01:01.217Z,52.69
2016-12-29T10:01:49.860Z,52.87
2016-12-29T10:02:55.599Z,52.79
2016-12-29T10:03:49.780Z,52.85
2016-12-29T10:04:53.907Z,52.92
2016-12-29T10:05:49.862Z,53.01
2016-12-29T10:06:43.333Z,53.12
2016-12-29T10:07:47.946Z,53.09
2016-12-29T10:08:54.519Z,53.13
2016-12-29T10:09:45.536Z,53.12
2016-12-29T10:11:00.318Z,53.01
2016-12-29T10:11:44.131Z,53.25
2016-12-29T10:12:58.887Z,53.26
2016-12-29T10:13:53.324Z,53.36
2016-12-29T10:14:54.986Z,53.37
2016-12-29T10:16:06.120Z,53.50
2016-12-29T10:16:48.495Z,53.48
2016-12-29T10:17:55.266Z,53.50
2016-12-29T10:18:52.405Z,53.58
2016-12-29T10:19:55.002Z,53.72
2016-12-29T10:20:48.907Z,53.79
2016-12-29T10:21:54.455Z,53.81
2016-12-29T10:23:01.651Z,53.85
2016-12-29T10:23:54.619Z,53.89
2016-12-29T10:24:54.724Z,53.94
2016-12-29T10:25:58.004Z,53.90
2016-12-29T10:26:50.021Z,53.97
2016-12-29T10:27:50.416Z,54.01
2016-12-29T10:29:02.769Z,54.13
2016-12-29T10:29:49.458Z,54.08
2016-12-29T10:30:50.325Z,54.14
2016-12-29T10:31:49.174Z,54.15
2016-12-29T10:32:49.971Z,54.15
2016-12-29T10:33:38.731Z,54.25
2016-12-29T10:34:41.736Z,54.20
2016-12-29T10:35:56.103Z,54.25
2016-12-29T10:36:48.458Z,54.26
2016-12-29T10:37:59.230Z,54.39
2016-12-29T10:38:49.706Z,54.38
2016-12-29T10:39:55.537Z,54.44
2016-12-29T10:40:52.638Z,54.43
2016-12-29T10:41:48.663Z,54.45
2016-12-29T10:42:54.115Z,54.45
2016-12-29T10:43:55.607Z,54.48
2016-12-29T10:44:49.974Z,54.60
2016-12-29T10:45:53.664Z,54.63
2016-12-29T10:47:06.035Z,54.65
2016-12-29T10:47:48.913Z,54.61
2016-12-29T10:48:56.885Z,54.64
2016-12-29T10:49:56.704Z,54.65
2016-12-29T10:50:56.186Z,54.70
2016-12-29T10:51:56.934Z,54.74
2016-12-29T10:52:47.767Z,54.75
2016-12-29T10:53:49.698Z,54.75
2016-12-29T10:55:11.480Z,54.80
2016-12-29T10:55:50.544Z,54.82
2016-12-29T10:56:50.979Z,54.87
2016-12-29T10:57:34.535Z,54.88
2016-12-29T10:58:55.679Z,54.87
2016-12-29T10:59:50.513Z,54.85
2016-12-29T11:00:58.745Z,54.91
2016-12-29T11:01:55.615Z,54.97
2016-12-29T11:02:48.145Z,55.01
2016-12-29T11:03:45.525Z,55.06
2016-12-29T11:04:57.280Z,55.08
2016-12-29T11:05:47.320Z,55.06
2016-12-29T11:06:43.433Z,55.10
2016-12-29T11:08:00.064Z,55.17
2016-12-29T11:08:47.522Z,55.13
2016-12-29T11:10:12.260Z,55.13
2016-12-29T11:10:57.479Z,55.15
2016-12-29T11:11:43.162Z,55.18
2016-12-29T11:12:50.739Z,55.23
2016-12-29T11:14:34.024Z,55.28
2016-12-29T11:14:52.724Z,55.27
2016-12-29T11:15:41.228Z,55.30
2016-12-29T11:16:51.943Z,55.36
2016-12-29T11:18:01.289Z,55.34
2016-12-29T11:18:44.180Z,55.37
2016-12-29T11:20:03.157Z,55.39
2016-12-29T11:20:51.994Z,55.40
2016-12-29T11:21:43.858Z,55.40
2016-12-29T11:22:50.349Z,55.38
2016-12-29T11:23:49.611Z,55.42
2016-12-29T11:24:51.438Z,55.44
2016-12-29T11:25:50.989Z,55.48
2016-12-29T11:26:55.770Z,55.48
2016-12-29T11:27:48.689Z,55.58
2016-12-29T11:28:57.538Z,55.58
2016-12-29T11:29:49.095Z,55.55
2016-12-29T11:30:53.695Z,55.62
2016-12-29T11:31:53.091Z,55.64
2016-12-29T11:32:46.233Z,55.59
2016-12-29T11:33:45.024Z,55.59
2016-12-29T11:34:49.151Z,55.66
2016-12-29T11:35:49.224Z,55.68
2016-12-29T11:36:44.112Z,55.68
2016-12-29T11:37:49.815Z,55.68
2016-12-29T11:38:50.476Z,55.66
2016-12-29T11:39:50.415Z,55.68
2016-12-29T11:41:10.139Z,55.70
2016-12-29T11:41:49.609Z,55.75
2016-12-29T11:42:46.804Z,55.75
2016-12-29T11:43:49.715Z,55.76
2016-12-29T11:44:55.308Z,55.78
2016-12-29T11:45:45.413Z,55.84
2016-12-29T11:46:43.012Z,55.87
2016-12-29T11:47:38.506Z,55.84
2016-12-29T11:48:52.903Z,55.87
2016-12-29T11:49:44.060Z,55.86
2016-12-29T11:50:54.902Z,55.88
2016-12-29T11:51:32.772Z,55.90
2016-12-29T11:52:48.042Z,55.90
2016-12-29T11:53:39.808Z,55.90
2016-12-29T11:54:41.429Z,55.90
2016-12-29T11:56:01.403Z,55.90
2016-12-29T11:56:47.165Z,55.91
2016-12-29T11:57:41.055Z,55.91
2016-12-29T11:58:45.369Z,55.96
2016-12-29T11:59:58.784Z,55.99
2016-12-29T12:00:51.921Z,55.97
2016-12-29T12:01:50.152Z,55.96
2016-12-29T12:02:55.137Z,55.95
2016-12-29T12:03:48.142Z,55.97
2016-12-29T12:04:48.421Z,55.99
2016-12-29T12:05:45.042Z,56.01
2016-12-29T12:06:50.226Z,56.06
2016-12-29T12:07:41.252Z,56.11
2016-12-29T12:08:54.013Z,56.07
2016-12-29T12:09:43.960Z,56.10
2016-12-29T12:10:37.063Z,56.09
2016-12-29T12:11:59.497Z,56.10
2016-12-29T12:12:42.722Z,56.11
2016-12-29T12:13:35.093Z,56.12
2016-12-29T12:14:42.385Z,56.07
2016-12-29T12:15:51.188Z,55.26
2016-12-29T12:16:57.484Z,55.05
2016-12-29T12:17:44.460Z,54.98
2016-12-29T12:18:39.015Z,54.92
2016-12-29T12:19:50.242Z,55.21
2016-12-29T12:20:43.578Z,55.75
2016-12-29T12:21:44.046Z,55.95
2016-12-29T12:22:47.308Z,56.04
2016-12-29T12:23:45.027Z,56.11
2016-12-29T12:24:45.055Z,56.14
2016-12-29T12:25:43.576Z,56.18
2016-12-29T12:26:50.696Z,56.19
2016-12-29T12:27:50.906Z,56.20
2016-12-29T12:28:49.420Z,56.26
2016-12-29T12:29:56.211Z,56.27
2016-12-29T12:30:44.252Z,56.24
2016-12-29T12:31:30.318Z,56.23
2016-12-29T12:32:33.597Z,56.26
2016-12-29T12:33:35.797Z,56.27
2016-12-29T12:34:40.779Z,56.26
2016-12-29T12:35:54.695Z,56.31
2016-12-29T12:36:49.856Z,56.32
2016-12-29T12:37:53.955Z,56.35
2016-12-29T12:38:47.733Z,56.34
2016-12-29T12:40:00.757Z,56.35
2016-12-29T12:40:59.795Z,56.31
2016-12-29T12:41:48.793Z,56.36
2016-12-29T12:42:50.856Z,56.34
2016-12-29T12:43:54.613Z,56.36
2016-12-29T12:44:52.559Z,56.38
2016-12-29T12:45:40.437Z,56.42
2016-12-29T12:46:44.544Z,56.42
2016-12-29T12:47:49.361Z,56.43
2016-12-29T12:48:51.304Z,56.42
2016-12-29T12:49:46.608Z,55.50
2016-12-29T12:50:44.739Z,55.35
2016-12-29T12:51:48.620Z,55.27
2016-12-29T12:52:51.498Z,56.13
2016-12-29T12:53:40.902Z,56.34
2016-12-29T12:54:57.463Z,56.44
2016-12-29T12:55:42.399Z,56.49
2016-12-29T12:56:51.264Z,56.58
2016-12-29T12:57:44.475Z,56.61
2016-12-29T12:58:37.744Z,56.72
2016-12-29T12:59:59.224Z,56.79
2016-12-29T13:00:51.384Z,56.79
2016-12-29T13:02:27.913Z,56.78
2016-12-29T13:02:54.142Z,56.87
2016-12-29T13:03:45.354Z,56.84
2016-12-29T13:05:42.121Z,56.91